Time;durP1;ratioP1;P1;durP2;ratioP2;P2;SDS_P1;SDS_P2;PMS_P1;PMS_P2;Temp;Humidity;BMP_temperature;BMP_pressure;BME280_temperature;BME280_humidity;BME280_pressure;Samples;Min_cycle;Max_cycle;Signal;HPM_P1;HPM_P2
2021/04/14 00:03:34;;;;;;;4.07;2.10;;;;;;;0.62;100.00;99496.86;3668776;80;43046;-24
2021/04/14 00:08:40;;;;;;;4.50;2.00;;;;;;;0.64;100.00;99486.20;3664944;80;43046;-25
2021/04/14 00:13:48;;;;;;;2.13;1.93;;;;;;;0.50;100.00;99488.16;3661421;80;45165;-24
2021/04/14 00:18:56;;;;;;;3.40;1.73;;;;;;;0.43;100.00;99488.90;3661996;80;43327;-24
2021/04/14 00:24:02;;;;;;;5.23;1.90;;;;;;;0.40;100.00;99481.11;3558582;82;44023;-24
2021/04/14 00:29:08;;;;;;;3.00;2.10;;;;;;;0.30;100.00;99492.11;3628645;80;43674;-25
2021/04/14 00:34:16;;;;;;;6.50;2.50;;;;;;;0.40;100.00;99488.58;3624495;79;44090;-25
2021/04/14 00:39:25;;;;;;;4.80;2.60;;;;;;;0.28;100.00;99488.70;3624752;81;43714;-25
2021/04/14 00:44:32;;;;;;;3.77;2.20;;;;;;;0.36;100.00;99494.09;3627943;81;44156;-25
2021/04/14 00:49:37;;;;;;;3.23;2.17;;;;;;;0.30;100.00;99486.81;3616034;81;43378;-25
2021/04/14 00:54:44;;;;;;;3.40;2.13;;;;;;;0.48;100.00;99486.03;3619855;81;44195;-25
2021/04/14 00:59:49;;;;;;;3.70;1.73;;;;;;;0.37;100.00;99487.39;3612486;81;44676;-25
2021/04/14 01:04:55;;;;;;;4.87;2.07;;;;;;;0.14;100.00;99496.40;3629409;79;44072;-25
2021/04/14 01:10:01;;;;;;;3.13;2.50;;;;;;;-0.07;100.00;99496.43;3618405;81;43808;-25
2021/04/14 01:15:10;;;;;;;4.90;2.40;;;;;;;-0.14;100.00;99489.66;3650712;81;43504;-25
2021/04/14 01:20:18;;;;;;;5.23;2.40;;;;;;;-0.22;100.00;99486.49;3652194;81;43394;-25
2021/04/14 01:25:26;;;;;;;5.50;2.60;;;;;;;-0.27;100.00;99479.20;3640656;81;43195;-25
2021/04/14 01:30:33;;;;;;;4.00;2.57;;;;;;;-0.33;100.00;99475.91;3659095;80;44012;-25
2021/04/14 01:35:38;;;;;;;4.57;2.57;;;;;;;-0.35;100.00;99481.73;3555402;82;44010;-25
2021/04/14 01:40:44;;;;;;;4.87;2.50;;;;;;;-0.35;100.00;99475.11;3669984;80;43694;-25
2021/04/14 01:45:50;;;;;;;4.60;2.53;;;;;;;-0.42;100.00;99480.28;3540689;83;44782;-25
2021/04/14 01:50:56;;;;;;;5.00;2.47;;;;;;;-0.46;100.00;99474.70;3648944;80;43692;-26
2021/04/14 01:56:02;;;;;;;2.87;2.33;;;;;;;-0.50;100.00;99478.40;3603366;81;44053;-26
2021/04/14 02:01:09;;;;;;;4.97;3.10;;;;;;;-0.56;100.00;99474.70;3665162;80;43459;-26
2021/04/14 02:06:17;;;;;;;5.73;3.27;;;;;;;-0.57;100.00;99480.92;3658701;79;44077;-25
2021/04/14 02:11:23;;;;;;;5.10;2.60;;;;;;;-0.60;100.00;99475.75;3664340;79;44104;-26
2021/04/14 02:16:29;;;;;;;4.43;3.00;;;;;;;-0.68;100.00;99482.23;3600762;81;44072;-27
2021/04/14 02:21:35;;;;;;;4.73;3.10;;;;;;;-0.86;100.00;99479.00;3655890;80;44120;-26
2021/04/14 02:26:40;;;;;;;5.80;3.13;;;;;;;-0.86;100.00;99482.97;3597110;81;44031;-26
2021/04/14 02:31:47;;;;;;;6.50;3.13;;;;;;;-0.82;100.00;99482.78;3647033;80;43716;-26
2021/04/14 02:36:53;;;;;;;4.77;2.63;;;;;;;-0.82;100.00;99480.61;3649393;80;43755;-26
2021/04/14 02:41:59;;;;;;;5.23;3.00;;;;;;;-0.84;100.00;99477.16;3590379;80;44054;-26
2021/04/14 02:47:05;;;;;;;8.40;3.13;;;;;;;-0.88;100.00;99483.05;3647465;80;42830;-26
2021/04/14 02:52:12;;;;;;;5.03;2.87;;;;;;;-0.89;100.00;99476.51;3587196;81;43014;-26
2021/04/14 02:57:18;;;;;;;4.97;3.30;;;;;;;-0.89;100.00;99476.51;3650049;80;43725;-26
2021/04/14 03:02:24;;;;;;;8.83;3.57;;;;;;;-0.82;100.00;99480.14;3634060;80;43329;-20
2021/04/14 03:07:30;;;;;;;6.80;3.53;;;;;;;-0.83;100.00;99475.80;3684931;79;43729;-21
2021/04/14 03:12:35;;;;;;;6.20;3.90;;;;;;;-0.85;100.00;99468.83;3614833;82;44087;-20
2021/04/14 03:17:41;;;;;;;5.33;3.53;;;;;;;-0.86;100.00;99472.39;3662365;79;44058;-20
2021/04/14 03:22:48;;;;;;;6.27;3.87;;;;;;;-0.88;100.00;99465.01;3666212;80;43339;-20
2021/04/14 03:27:53;;;;;;;10.77;4.17;;;;;;;-0.88;100.00;99468.97;3669091;80;44448;-20
2021/04/14 03:33:00;;;;;;;6.97;4.17;;;;;;;-0.83;100.00;99465.66;3695499;79;42864;-20
2021/04/14 03:38:06;;;;;;;6.93;3.97;;;;;;;-0.83;100.00;99465.66;3611784;82;43353;-19
2021/04/14 03:43:11;;;;;;;9.93;5.23;;;;;;;-0.80;100.00;99472.16;3684327;79;44135;-19
2021/04/14 03:48:18;;;;;;;7.43;4.23;;;;;;;-0.76;100.00;99468.44;3649422;79;44108;-20
2021/04/14 03:53:27;;;;;;;6.07;4.30;;;;;;;-0.76;100.00;99463.14;3677984;79;44003;-20
2021/04/14 03:58:36;;;;;;;9.67;4.63;;;;;;;-0.74;100.00;99474.53;3680119;79;43673;-20
2021/04/14 04:03:42;;;;;;;8.70;5.20;;;;;;;-0.71;100.00;99465.63;3682405;79;43362;-20
2021/04/14 04:08:47;;;;;;;9.73;5.13;;;;;;;-0.66;100.00;99469.80;3645348;80;43413;-20
2021/04/14 04:13:54;;;;;;;12.40;5.33;;;;;;;-0.59;100.00;99470.85;3681266;79;44079;-20
2021/04/14 04:19:00;;;;;;;9.50;5.00;;;;;;;-0.56;100.00;99474.70;3648180;79;43175;-20
2021/04/14 04:24:08;;;;;;;7.03;4.67;;;;;;;-0.53;100.00;99477.23;3680896;79;43729;-20
2021/04/14 04:29:13;;;;;;;7.63;4.90;;;;;;;-0.50;100.00;99487.66;3626892;81;44090;-21
2021/04/14 04:34:20;;;;;;;10.67;5.23;;;;;;;-0.43;100.00;99489.59;3627708;79;44018;-20
2021/04/14 04:39:25;;;;;;;8.67;5.00;;;;;;;-0.39;100.00;99493.36;3625798;81;43444;-20
2021/04/14 04:44:31;;;;;;;8.53;4.60;;;;;;;-0.40;100.00;99485.02;3637856;81;43482;-20
2021/04/14 04:49:37;;;;;;;7.70;5.13;;;;;;;-0.39;100.00;99499.14;3650496;81;44160;-20
2021/04/14 04:54:43;;;;;;;9.43;4.93;;;;;;;-0.40;100.00;99499.58;3639969;79;43354;-20
2021/04/14 04:59:49;;;;;;;9.67;5.63;;;;;;;-0.38;100.00;99502.19;3646956;81;43330;-20
2021/04/14 05:04:55;;;;;;;10.47;4.90;;;;;;;-0.33;100.00;99497.09;3644701;81;43680;-20
2021/04/14 05:10:01;;;;;;;8.20;4.63;;;;;;;-0.31;100.00;99500.98;3644403;81;44037;-20
2021/04/14 05:15:10;;;;;;;7.17;4.80;;;;;;;-0.43;100.00;99502.83;3648750;81;44078;-20
2021/04/14 05:20:15;;;;;;;9.03;4.67;;;;;;;-0.56;100.00;99501.17;3642179;81;44033;-20
2021/04/14 05:25:24;;;;;;;9.50;5.33;;;;;;;-0.64;100.00;99514.24;3632946;79;44565;-20
2021/04/14 05:30:31;;;;;;;8.17;4.80;;;;;;;-0.64;100.00;99509.42;3640601;79;43701;-20
2021/04/14 05:35:38;;;;;;;8.17;5.10;;;;;;;-0.64;100.00;99511.59;3649353;80;44073;-20
2021/04/14 05:40:43;;;;;;;9.80;5.23;;;;;;;-0.67;100.00;99515.72;3657966;80;43653;-20
2021/04/14 05:45:54;;;;;;;7.77;5.00;;;;;;;-0.64;100.00;99512.08;3679435;79;44008;-20
2021/04/14 05:51:04;;;;;;;11.30;5.90;;;;;;;-0.62;100.00;99522.14;3646162;80;43978;-20
2021/04/14 05:56:09;;;;;;;9.93;5.53;;;;;;;-0.52;100.00;99526.57;3619767;81;43472;-20
2021/04/14 06:01:18;;;;;;;8.13;5.40;;;;;;;-0.33;100.00;99518.72;3685591;79;43006;-20
2021/04/14 06:06:26;;;;;;;11.80;5.50;;;;;;;-0.15;100.00;99519.72;3651627;80;43380;-20
2021/04/14 06:11:33;;;;;;;8.17;5.43;;;;;;;0.05;100.00;99522.83;3683046;79;43458;-20
2021/04/14 06:16:39;;;;;;;12.90;6.10;;;;;;;0.27;100.00;99529.83;3657813;80;43207;-20
2021/04/14 06:21:47;;;;;;;10.67;4.87;;;;;;;0.43;100.00;99527.34;3673278;79;43417;-20
2021/04/14 06:26:55;;;;;;;12.07;4.93;;;;;;;0.60;100.00;99519.49;3659168;80;43686;-21
2021/04/14 06:32:00;;;;;;;11.37;5.37;;;;;;;0.78;100.00;99520.87;3665352;78;43245;-20
2021/04/14 06:37:06;;;;;;;7.97;5.17;;;;;;;0.88;100.00;99522.16;3630933;80;43439;-20
2021/04/14 06:42:23;;;;;;;8.37;4.80;;;;;;;0.97;100.00;99527.50;3648392;81;43756;-20
2021/04/14 06:47:34;;;;;;;9.63;4.87;;;;;;;1.03;100.00;99525.90;3641308;81;44161;-21
2021/04/14 06:52:44;;;;;;;8.73;5.63;;;;;;;1.14;100.00;99520.53;3650459;81;43449;-21
2021/04/14 06:57:56;;;;;;;11.10;5.57;;;;;;;1.28;100.00;99524.72;3636988;81;44322;-20
2021/04/14 07:03:05;;;;;;;7.03;4.70;;;;;;;1.39;100.00;99530.81;3644183;79;43703;-20
2021/04/14 07:08:15;;;;;;;9.63;4.90;;;;;;;1.52;100.00;99523.11;3662550;79;43700;-20
2021/04/14 07:13:21;;;;;;;8.37;4.50;;;;;;;1.50;100.00;99528.48;3706899;79;42990;-20
2021/04/14 07:18:31;;;;;;;7.53;4.80;;;;;;;1.49;100.00;99528.08;3707008;79;44021;-21
2021/04/14 07:23:49;;;;;;;7.73;5.00;;;;;;;1.71;100.00;99531.47;3704756;79;43439;-21
2021/04/14 07:29:05;;;;;;;12.83;5.00;;;;;;;1.76;100.00;99529.45;3771096;78;44006;-20
2021/04/14 07:34:25;;;;;;;8.63;4.67;;;;;;;1.80;100.00;99525.23;3791939;76;44143;-20
2021/04/14 07:39:36;;;;;;;7.67;4.57;;;;;;;1.90;100.00;99524.75;3668946;80;44569;-21
2021/04/14 07:44:46;;;;;;;8.30;4.60;;;;;;;2.11;100.00;99523.63;3811517;77;43466;-21
2021/04/14 07:49:52;;;;;;;8.73;4.50;;;;;;;2.23;100.00;99529.24;3811192;77;43991;-21
2021/04/14 07:54:59;;;;;;;9.83;4.87;;;;;;;2.32;100.00;99531.41;3810691;77;44011;-20
2021/04/14 08:00:15;;;;;;;10.83;4.90;;;;;;;2.36;100.00;99530.32;3811914;77;43439;-21
2021/04/14 08:05:30;;;;;;;10.93;4.57;;;;;;;2.52;100.00;99529.50;3808873;76;43716;-21
2021/04/14 08:10:35;;;;;;;6.57;4.37;;;;;;;2.72;100.00;99529.73;3814697;77;44037;-20
2021/04/14 08:15:45;;;;;;;9.27;4.33;;;;;;;2.91;100.00;99521.59;3808549;77;43713;-21
2021/04/14 08:20:53;;;;;;;8.63;4.20;;;;;;;2.93;100.00;99522.38;3812238;77;43076;-21
2021/04/14 08:26:01;;;;;;;10.03;4.23;;;;;;;2.93;100.00;99519.71;3821764;77;44145;-21
2021/04/14 08:31:14;;;;;;;10.90;5.17;;;;;;;3.12;100.00;99518.70;3814506;77;44702;-21
2021/04/14 08:36:26;;;;;;;6.83;3.60;;;;;;;3.21;100.00;99515.02;3731687;77;44106;-21
2021/04/14 08:41:34;;;;;;;7.70;3.60;;;;;;;3.33;100.00;99515.26;3729790;79;43681;-21
2021/04/14 08:46:42;;;;;;;10.77;4.00;;;;;;;3.42;100.00;99512.55;3668647;80;43686;-21
2021/04/14 08:51:51;;;;;;;6.53;3.87;;;;;;;3.34;100.00;99514.31;3670354;80;44067;-21
2021/04/14 08:56:59;;;;;;;11.00;4.00;;;;;;;3.53;100.00;99506.96;3727136;79;44131;-22
2021/04/14 09:02:08;;;;;;;11.53;4.40;;;;;;;3.61;100.00;99507.84;3730790;79;43706;-21
2021/04/14 09:07:18;;;;;;;7.30;3.80;;;;;;;3.63;100.00;99503.30;3729908;79;43345;-21
2021/04/14 09:12:40;;;;;;;11.77;4.20;;;;;;;3.69;100.00;99506.95;3721557;79;43333;-21
2021/04/14 09:17:58;;;;;;;8.73;3.63;;;;;;;4.10;100.00;99491.20;3710039;79;412895;-20
2021/04/14 09:23:06;;;;;;;6.07;3.10;;;;;;;3.95;100.00;99492.51;3697918;79;44638;-21
2021/04/14 09:28:20;;;;;;;7.13;3.23;;;;;;;3.64;100.00;99496.17;3633706;81;45171;-22
2021/04/14 09:33:39;;;;;;;7.80;3.20;;;;;;;3.44;100.00;99502.66;3646365;80;44101;-20
2021/04/14 09:38:49;;;;;;;6.43;2.97;;;;;;;3.54;100.00;99499.84;3662486;79;44114;-21
2021/04/14 09:43:58;;;;;;;10.03;3.90;;;;;;;3.38;100.00;99499.39;3689279;79;43711;-20
2021/04/14 09:49:13;;;;;;;10.57;3.87;;;;;;;3.01;100.00;99497.50;3637975;81;43672;-23
2021/04/14 09:54:24;;;;;;;7.20;3.50;;;;;;;3.06;100.00;99490.58;3633595;81;44489;-22
2021/04/14 09:59:32;;;;;;;8.50;4.10;;;;;;;3.32;100.00;99487.78;3636590;81;44208;-23
2021/04/14 10:04:40;;;;;;;10.23;3.80;;;;;;;3.26;100.00;99488.11;3637427;81;44337;-23
2021/04/14 10:09:46;;;;;;;7.10;3.70;;;;;;;3.22;100.00;99478.13;3638477;81;43086;-23
2021/04/14 10:14:55;;;;;;;8.20;3.57;;;;;;;3.60;100.00;99475.98;3636776;80;44042;-22
2021/04/14 10:20:15;;;;;;;8.53;3.67;;;;;;;3.70;100.00;99465.98;3650295;81;43451;-22
2021/04/14 10:25:24;;;;;;;9.13;3.57;;;;;;;3.68;100.00;99463.92;3685113;79;43681;-22
2021/04/14 10:30:33;;;;;;;6.87;3.30;;;;;;;3.75;100.00;99463.08;3605461;81;43338;-25
2021/04/14 10:35:39;;;;;;;7.00;3.20;;;;;;;3.90;100.00;99447.08;3680733;79;115742;-23
2021/04/14 10:40:46;;;;;;;7.63;3.60;;;;;;;4.21;100.00;99435.39;3727928;79;43445;-23
2021/04/14 10:46:00;;;;;;;5.00;3.17;;;;;;;4.81;93.76;99433.39;3725074;79;43396;-23
2021/04/14 10:51:11;;;;;;;9.57;3.57;;;;;;;4.94;88.97;99430.31;3730675;79;44085;-25
2021/04/14 10:56:21;;;;;;;6.77;3.00;;;;;;;4.76;92.49;99415.50;3692882;79;43329;-23
2021/04/14 11:01:34;;;;;;;6.07;2.60;;;;;;;4.75;87.35;99416.45;3692040;79;43981;-23
2021/04/14 11:06:42;;;;;;;6.77;3.80;;;;;;;4.40;83.36;99424.42;3694185;79;43367;-23
2021/04/14 11:11:50;;;;;;;6.73;3.53;;;;;;;4.07;92.33;99426.05;3699935;79;44034;-23
2021/04/14 11:16:56;;;;;;;5.70;3.20;;;;;;;3.05;100.00;99444.47;3692562;79;43493;-24
2021/04/14 11:22:04;;;;;;;5.23;3.23;;;;;;;2.82;100.00;99443.59;3690173;79;44105;-24
2021/04/14 11:27:15;;;;;;;8.47;3.13;;;;;;;2.92;100.00;99427.03;3693288;79;44085;-24
2021/04/14 11:32:25;;;;;;;5.03;2.80;;;;;;;2.98;100.00;99428.94;3696837;79;44037;-23
2021/04/14 11:37:44;;;;;;;5.87;3.20;;;;;;;3.31;100.00;99420.80;3684535;79;43729;-24
2021/04/14 11:42:55;;;;;;;7.40;3.63;;;;;;;3.48;100.00;99417.14;3677031;79;44425;-27
2021/04/14 11:48:14;;;;;;;6.83;3.13;;;;;;;3.90;100.00;99418.62;3778803;77;44063;-24
2021/04/14 11:53:24;;;;;;;6.90;3.17;;;;;;;4.26;100.00;99410.62;3777373;77;44394;-24
2021/04/14 11:58:33;;;;;;;8.30;3.07;;;;;;;4.51;100.00;99408.20;3781846;77;44027;-24
2021/04/14 12:03:41;;;;;;;5.47;3.13;;;;;;;5.16;99.10;99390.15;3777730;77;44206;-24
2021/04/14 12:08:46;;;;;;;7.30;3.10;;;;;;;5.96;100.00;99387.83;3748426;77;44098;-23
2021/04/14 12:13:53;;;;;;;5.70;3.10;;;;;;;5.89;96.19;99388.37;3785751;77;43772;-22
2021/04/14 12:18:59;;;;;;;5.13;2.93;;;;;;;5.11;89.61;99406.98;3783437;77;44994;-25
2021/04/14 12:24:06;;;;;;;5.23;2.70;;;;;;;4.30;100.00;99420.13;3778286;77;44722;-22
2021/04/14 12:29:14;;;;;;;6.37;2.80;;;;;;;3.52;100.00;99421.34;3788428;77;43707;-22
2021/04/14 12:34:22;;;;;;;3.37;2.60;;;;;;;3.43;100.00;99435.67;3785344;77;43723;-23
2021/04/14 12:39:28;;;;;;;3.87;2.50;;;;;;;3.16;100.00;99423.90;3821450;77;44039;-23
2021/04/14 12:44:34;;;;;;;4.30;2.63;;;;;;;2.89;100.00;99424.98;3831468;77;43365;-23
2021/04/14 12:49:42;;;;;;;5.80;2.90;;;;;;;3.03;100.00;99422.41;3814332;77;43475;-23
2021/04/14 12:54:50;;;;;;;6.80;2.83;;;;;;;3.27;100.00;99415.75;3813981;77;44052;-25
2021/04/14 12:59:58;;;;;;;3.47;2.30;;;;;;;3.52;100.00;99416.02;3816566;77;43682;-24
2021/04/14 13:05:08;;;;;;;5.63;2.87;;;;;;;3.97;100.00;99405.78;3809504;77;43775;-23
2021/04/14 13:10:16;;;;;;;4.83;2.80;;;;;;;4.28;100.00;99403.39;3815984;77;44057;-23
2021/04/14 13:15:27;;;;;;;3.37;2.80;;;;;;;4.83;100.00;99395.44;3813545;77;43096;-24
2021/04/14 13:20:33;;;;;;;8.57;2.87;;;;;;;5.64;100.00;99378.04;3818598;77;43713;-23
2021/04/14 13:25:44;;;;;;;4.50;2.40;;;;;;;6.07;100.00;99372.38;3815750;77;43689;-23
2021/04/14 13:30:55;;;;;;;5.93;2.30;;;;;;;6.15;97.23;99366.48;3811906;77;43994;-23
2021/04/14 13:36:05;;;;;;;5.53;3.10;;;;;;;6.28;85.39;99366.48;3807718;77;44098;-24
2021/04/14 13:41:14;;;;;;;6.60;2.40;;;;;;;6.32;97.50;99362.13;3792065;77;43710;-23
2021/04/14 13:46:23;;;;;;;4.53;2.80;;;;;;;6.78;92.81;99365.91;3784292;77;43475;-24
2021/04/14 13:51:33;;;;;;;4.70;2.10;;;;;;;6.99;89.34;99366.64;3787552;77;43939;-23
2021/04/14 13:56:43;;;;;;;2.53;2.33;;;;;;;5.81;95.83;99357.68;3759146;77;44007;-24
2021/04/14 14:01:55;;;;;;;4.63;2.30;;;;;;;5.36;100.00;99350.06;3784384;77;44088;-23
2021/04/14 14:07:04;;;;;;;4.60;2.10;;;;;;;6.32;94.70;99341.18;3787878;77;44032;-24
2021/04/14 14:12:15;;;;;;;3.27;2.00;;;;;;;7.02;81.11;99325.36;3787738;77;43309;-24
2021/04/14 14:17:25;;;;;;;2.90;2.20;;;;;;;6.52;84.81;99329.52;3706582;79;43417;-22
2021/04/14 14:22:34;;;;;;;3.53;2.60;;;;;;;5.61;88.93;99332.33;3686356;80;43406;-23
2021/04/14 14:27:41;;;;;;;4.23;2.50;;;;;;;4.98;93.86;99350.84;3682883;79;44067;-23
2021/04/14 14:32:47;;;;;;;5.87;2.47;;;;;;;4.69;100.00;99342.97;3788601;77;43377;-23
2021/04/14 14:37:57;;;;;;;3.53;2.20;;;;;;;3.96;100.00;99358.25;3800771;77;43730;-24
2021/04/14 14:43:08;;;;;;;2.57;1.77;;;;;;;3.91;100.00;99334.16;3804555;77;43083;-24
2021/04/14 14:48:17;;;;;;;6.57;2.20;;;;;;;3.93;100.00;99331.80;3804315;77;43418;-22
2021/04/14 14:53:25;;;;;;;3.87;2.17;;;;;;;3.97;100.00;99327.97;3806236;77;43729;-24
2021/04/14 14:58:37;;;;;;;3.17;2.10;;;;;;;4.12;100.00;99322.62;3814051;77;43330;-24
2021/04/14 15:03:39;;;;;;;3.57;1.67;;;;;;;4.32;100.00;99320.85;3812870;77;44032;-24
2021/04/14 15:08:46;;;;;;;2.90;1.87;;;;;;;4.53;100.00;99316.40;3810178;77;43682;-23
2021/04/14 15:13:52;;;;;;;2.87;1.90;;;;;;;4.69;100.00;99307.39;3764372;79;44054;-24
2021/04/14 15:18:58;;;;;;;3.63;2.30;;;;;;;5.66;95.33;99306.61;3791965;77;43690;-22
2021/04/14 15:24:05;;;;;;;4.13;2.93;;;;;;;6.38;88.11;99303.74;3791413;77;43635;-23
2021/04/14 15:29:11;;;;;;;3.63;2.13;;;;;;;6.34;87.71;99300.45;3750393;79;73320;-23
2021/04/14 15:34:17;;;;;;;6.30;2.90;;;;;;;5.73;93.36;99298.52;3790509;77;44049;-23
2021/04/14 15:39:25;;;;;;;3.37;2.60;;;;;;;5.37;95.33;99301.47;3786066;77;43696;-23
2021/04/14 15:44:31;;;;;;;3.27;2.90;;;;;;;4.94;98.06;99307.92;3788966;77;43461;-23
2021/04/14 15:49:37;;;;;;;3.70;2.50;;;;;;;4.66;100.00;99299.58;3779069;77;43337;-23
2021/04/14 15:54:45;;;;;;;3.10;2.43;;;;;;;4.41;100.00;99289.22;3757491;77;43993;-23
2021/04/14 15:59:56;;;;;;;2.47;2.07;;;;;;;4.29;100.00;99301.03;3814424;77;43459;-23
2021/04/14 16:05:03;;;;;;;4.37;2.03;;;;;;;4.35;100.00;99300.27;3762794;77;43734;-23
2021/04/14 16:10:11;;;;;;;2.47;1.93;;;;;;;5.51;92.23;99303.20;3737991;77;44054;-22
2021/04/14 16:15:19;;;;;;;1.97;1.60;;;;;;;5.95;82.24;99300.98;3616215;81;43412;-22
2021/04/14 16:20:25;;;;;;;2.90;1.60;;;;;;;6.71;77.40;99298.19;3735457;79;43395;-23
2021/04/14 16:25:32;;;;;;;3.70;1.50;;;;;;;6.70;80.93;99296.51;3725894;79;73805;-23
2021/04/14 16:30:40;;;;;;;2.83;1.30;;;;;;;7.24;63.11;99289.72;3733148;79;43715;-24
2021/04/14 16:35:46;;;;;;;2.40;1.50;;;;;;;6.42;68.58;99287.84;3732269;79;43702;-23
2021/04/14 16:40:54;;;;;;;3.17;2.00;;;;;;;6.09;75.61;99290.69;3750348;78;44015;-23
2021/04/14 16:46:00;;;;;;;5.57;2.00;;;;;;;4.80;89.35;99292.84;3757995;77;43714;-24
2021/04/14 16:51:07;;;;;;;3.65;1.98;;;;;;;4.37;91.84;99294.36;3753958;78;74329;-23
2021/04/14 16:56:13;;;;;;;3.20;2.07;;;;;;;3.67;100.00;99288.09;3755977;78;43448;-23
2021/04/14 17:01:19;;;;;;;2.20;1.40;;;;;;;3.88;100.00;99276.56;3689978;79;43977;-23
2021/04/14 17:06:28;;;;;;;1.50;1.20;;;;;;;4.21;98.60;99272.67;3735058;79;43716;-23
2021/04/14 17:11:35;;;;;;;2.50;1.60;;;;;;;4.09;95.29;99276.14;3720304;79;43474;-23
2021/04/14 17:16:42;;;;;;;2.57;1.40;;;;;;;4.12;95.97;99273.28;3668980;80;43325;-23
2021/04/14 17:21:49;;;;;;;2.37;2.00;;;;;;;4.02;94.34;99269.01;3721379;77;43995;-23
2021/04/14 17:26:56;;;;;;;7.30;2.27;;;;;;;3.83;100.00;99277.32;3678905;79;44002;-22
2021/04/14 17:32:02;;;;;;;3.03;2.00;;;;;;;3.56;100.00;99288.78;3640621;80;43986;-23
2021/04/14 17:37:08;;;;;;;3.00;1.87;;;;;;;3.38;100.00;99299.61;3687838;80;44110;-22
2021/04/14 17:42:14;;;;;;;4.13;2.00;;;;;;;3.37;100.00;99297.05;3759948;79;43329;-22
2021/04/14 17:47:19;;;;;;;3.77;2.37;;;;;;;3.06;100.00;99286.91;3629403;80;44036;-22
2021/04/14 17:52:27;;;;;;;3.83;1.90;;;;;;;2.71;100.00;99292.05;3742064;79;44078;-23
2021/04/14 17:57:33;;;;;;;3.50;2.10;;;;;;;2.58;100.00;99295.92;3736985;79;44061;-22
2021/04/14 18:02:39;;;;;;;3.30;1.90;;;;;;;2.60;100.00;99289.17;3739397;77;43686;-23
2021/04/14 18:07:45;;;;;;;2.87;1.70;;;;;;;2.62;100.00;99297.92;3756433;78;43677;-23
2021/04/14 18:12:52;;;;;;;2.70;1.40;;;;;;;2.82;100.00;99297.22;3726997;79;43409;-24
2021/04/14 18:17:58;;;;;;;11.33;2.63;;;;;;;2.84;100.00;99294.00;3731567;79;44069;-22
2021/04/14 18:23:04;;;;;;;2.37;1.80;;;;;;;2.98;100.00;99289.17;3726975;77;44542;-22
2021/04/14 18:28:10;;;;;;;2.83;2.33;;;;;;;2.92;100.00;99303.25;3736066;78;43893;-23
2021/04/14 18:33:16;;;;;;;4.63;3.00;;;;;;;2.43;100.00;99310.09;3753801;78;43068;-22
2021/04/14 18:38:23;;;;;;;5.07;2.53;;;;;;;2.28;100.00;99322.46;3765897;77;44182;-23
2021/04/14 18:43:30;;;;;;;3.60;2.40;;;;;;;2.26;100.00;99327.84;3748577;78;44115;-23
2021/04/14 18:48:37;;;;;;;5.47;3.10;;;;;;;2.28;100.00;99325.97;3644259;80;43403;-26
2021/04/14 18:53:44;;;;;;;9.47;2.93;;;;;;;2.02;100.00;99343.38;3738095;77;42719;-26
2021/04/14 18:58:50;;;;;;;3.77;2.20;;;;;;;1.96;100.00;99349.88;3707240;80;43682;-26
2021/04/14 19:03:57;;;;;;;3.87;2.17;;;;;;;1.96;100.00;99351.66;3679026;78;43475;-24
2021/04/14 19:09:04;;;;;;;2.60;2.40;;;;;;;1.92;100.00;99346.99;3652224;80;44014;-24
2021/04/14 19:14:11;;;;;;;3.03;2.20;;;;;;;1.85;100.00;99354.44;3727357;77;43681;-26
2021/04/14 19:19:18;;;;;;;2.97;2.30;;;;;;;1.80;100.00;99357.83;3720974;77;44098;-26
2021/04/14 19:24:24;;;;;;;3.90;2.07;;;;;;;1.70;100.00;99361.92;3648097;80;44033;-24
2021/04/14 19:29:32;;;;;;;2.63;2.30;;;;;;;1.69;100.00;99358.88;3708585;80;43682;-25
2021/04/14 19:34:38;;;;;;;3.20;2.30;;;;;;;1.73;100.00;99365.72;3636155;80;43354;-25
2021/04/14 19:39:43;;;;;;;5.20;2.80;;;;;;;1.74;100.00;99359.47;3731727;78;44095;-25
2021/04/14 19:44:50;;;;;;;4.40;2.60;;;;;;;1.63;100.00;99370.69;3669499;80;44020;-25
2021/04/14 19:49:57;;;;;;;3.87;2.67;;;;;;;1.51;100.00;99372.17;3738192;79;43246;-23
2021/04/14 19:55:04;;;;;;;5.60;3.07;;;;;;;1.60;100.00;99371.30;3725868;79;44140;-25
2021/04/14 20:00:13;;;;;;;3.90;3.00;;;;;;;1.65;100.00;99371.92;3731791;77;44003;-25
2021/04/14 20:05:22;;;;;;;4.30;2.93;;;;;;;1.64;100.00;99376.39;3730016;79;43686;-25
2021/04/14 20:10:31;;;;;;;4.07;2.90;;;;;;;1.45;100.00;99368.98;3722458;79;44204;-25
2021/04/14 20:15:37;;;;;;;4.70;2.73;;;;;;;1.25;100.00;99360.27;3727225;79;43247;-25
2021/04/14 20:20:43;;;;;;;4.10;2.80;;;;;;;1.25;100.00;99372.20;3722091;79;43377;-25
2021/04/14 20:25:50;;;;;;;4.70;3.23;;;;;;;1.28;100.00;99364.55;3724309;79;43040;-25
2021/04/14 20:30:56;;;;;;;5.87;3.30;;;;;;;1.07;100.00;99371.34;3720521;77;43358;-25
2021/04/14 20:36:01;;;;;;;5.33;3.30;;;;;;;1.03;100.00;99367.12;3721895;79;43705;-25
2021/04/14 20:41:09;;;;;;;5.00;3.13;;;;;;;1.03;100.00;99366.67;3727082;78;44046;-25
2021/04/14 20:46:16;;;;;;;6.07;3.20;;;;;;;1.03;100.00;99365.34;3734926;78;44057;-25
2021/04/14 20:51:24;;;;;;;6.03;3.27;;;;;;;0.97;100.00;99364.31;3709015;80;43686;-25
2021/04/14 20:56:32;;;;;;;7.10;3.73;;;;;;;0.92;100.00;99364.55;3684570;78;43385;-25
2021/04/14 21:01:38;;;;;;;5.13;3.50;;;;;;;0.79;100.00;99354.14;3648944;80;43696;-25
2021/04/14 21:06:44;;;;;;;4.90;3.77;;;;;;;0.78;100.00;99359.05;3726944;78;43685;-25
2021/04/14 21:11:52;;;;;;;4.37;3.57;;;;;;;0.79;100.00;99361.27;3710780;78;43650;-25
2021/04/14 21:16:57;;;;;;;5.27;3.80;;;;;;;0.80;100.00;99365.16;3671616;80;43687;-25
2021/04/14 21:22:05;;;;;;;6.00;3.53;;;;;;;0.83;100.00;99362.35;3675335;80;44074;-26
2021/04/14 21:27:11;;;;;;;10.10;3.80;;;;;;;0.85;100.00;99371.10;3764690;78;43401;-24
2021/04/14 21:32:17;;;;;;;7.60;3.90;;;;;;;0.77;100.00;99370.60;3708407;78;44098;-24
2021/04/14 21:37:25;;;;;;;5.80;3.73;;;;;;;0.73;100.00;99373.03;3650867;80;44060;-25
2021/04/14 21:42:31;;;;;;;5.73;3.63;;;;;;;0.72;100.00;99369.98;3724707;78;43409;-25
2021/04/14 21:47:38;;;;;;;7.27;3.73;;;;;;;0.68;100.00;99366.63;3718558;78;43593;-24
2021/04/14 21:52:44;;;;;;;6.37;3.93;;;;;;;0.68;100.00;99368.41;3729288;78;44097;-26
2021/04/14 21:57:51;;;;;;;6.57;4.10;;;;;;;0.68;100.00;99370.61;3646558;81;44017;-27
2021/04/14 22:02:56;;;;;;;6.53;4.27;;;;;;;0.70;100.00;99366.55;3706626;80;43238;-26
2021/04/14 22:08:04;;;;;;;5.53;4.07;;;;;;;0.69;100.00;99362.17;3635931;80;43317;-26
2021/04/14 22:13:12;;;;;;;5.93;4.27;;;;;;;0.71;100.00;99364.28;3708614;79;43713;-26
2021/04/14 22:18:19;;;;;;;8.30;4.53;;;;;;;0.69;100.00;99362.17;3738385;78;43677;-26
2021/04/14 22:23:27;;;;;;;6.67;4.40;;;;;;;0.78;100.00;99360.38;3703721;80;43788;-26
2021/04/14 22:28:35;;;;;;;7.73;4.30;;;;;;;0.86;100.00;99361.33;3708691;80;43342;-27
2021/04/14 22:33:41;;;;;;;8.03;4.43;;;;;;;0.85;100.00;99364.47;3683384;78;43160;-23
2021/04/14 22:38:49;;;;;;;6.83;4.53;;;;;;;0.88;100.00;99368.75;3663276;80;43669;-23
2021/04/14 22:43:56;;;;;;;7.53;4.90;;;;;;;0.92;100.00;99366.35;3724605;78;43725;-23
2021/04/14 22:49:02;;;;;;;7.20;4.37;;;;;;;0.94;100.00;99364.94;3726649;78;43412;-23
2021/04/14 22:54:08;;;;;;;5.80;4.33;;;;;;;0.88;100.00;99368.27;3629290;80;43721;-24
2021/04/14 22:59:13;;;;;;;7.33;4.67;;;;;;;0.90;100.00;99367.73;3722488;78;43709;-24
2021/04/14 23:04:19;;;;;;;7.63;4.63;;;;;;;0.80;100.00;99373.11;3636216;80;44066;-23
2021/04/14 23:09:24;;;;;;;8.13;5.00;;;;;;;0.86;100.00;99370.17;3701460;78;44750;-23
2021/04/14 23:14:30;;;;;;;6.73;4.73;;;;;;;0.76;100.00;99371.56;3755498;78;44238;-24
2021/04/14 23:19:36;;;;;;;8.40;5.10;;;;;;;0.85;100.00;99367.13;3709178;80;44089;-24
2021/04/14 23:24:41;;;;;;;6.20;4.40;;;;;;;0.80;100.00;99365.16;3708411;80;43400;-23
2021/04/14 23:29:47;;;;;;;5.77;4.43;;;;;;;0.83;100.00;99364.12;3708637;80;44094;-23
2021/04/14 23:34:53;;;;;;;5.97;4.40;;;;;;;1.10;100.00;99363.69;3729076;78;43726;-23
2021/04/14 23:39:59;;;;;;;7.53;4.53;;;;;;;1.18;100.00;99362.37;3729719;78;44070;-24
2021/04/14 23:45:07;;;;;;;7.23;4.60;;;;;;;1.42;100.00;99355.86;3695111;79;43002;-24
2021/04/14 23:50:17;;;;;;;6.07;4.43;;;;;;;1.28;100.00;99357.91;3696378;79;43983;-22
2021/04/14 23:55:24;;;;;;;5.37;4.63;;;;;;;1.29;100.00;99355.64;3767134;78;43416;-24
